Villa de Puerto Real, Puerto Rico
Current Conditions -  °F | °C
As of 2:53 PM on Thursday 30 Oct 2014 (Local Time) from TJNR Reporting Station
Overcast Overcast  
Wind Chill: 85°   Ceiling: 2500
Heat Index: 93°   Visibility: 10mi
Dew Point: 75°   Wind: 12mph
Humidity: 72%   Direction: 170°S
Pressure: 29.8"   Gusts: NA
Location:  18.3304°N, 65.6573°W
Report Text: TJNR 301853Z AUTO 17010KT 10SM BKN025 BKN032 OVC042 29/24 A2980 RMK AO2 SLP091 T02940239 $
Loading
Personal Weather Stations






























Interactive Weather Map
Tropical Storm Tracking
New forecast layout! Learn more

10-Day Weather Forecast

Advertisements
Track Severe Weather on mobile